createdAt,value
2024-02-18T00:01:57.566Z,94680.28
2024-02-18T00:07:03.924Z,94683.50
2024-02-18T00:12:08.418Z,94682.06
2024-02-18T00:17:11.686Z,94689.22
2024-02-18T00:22:15.097Z,94679.66
2024-02-18T00:27:18.962Z,94685.06
2024-02-18T00:32:23.245Z,94697.81
2024-02-18T00:37:27.743Z,94689.22
2024-02-18T00:42:31.274Z,94688.09
2024-02-18T00:47:34.746Z,94688.09
2024-02-18T00:52:38.093Z,94688.38
2024-02-18T00:57:42.588Z,94688.44
2024-02-18T01:02:46.277Z,94679.56
2024-02-18T01:07:49.553Z,94685.47
2024-02-18T01:12:53.027Z,94687.06
2024-02-18T01:17:56.601Z,94697.91
2024-02-18T01:23:00.003Z,94699.97
2024-02-18T01:28:04.407Z,94691.50
2024-02-18T01:33:08.028Z,94690.41
2024-02-18T01:38:12.190Z,94682.38
2024-02-18T01:43:19.862Z,94686.81
2024-02-18T01:48:25.931Z,94683.38
2024-02-18T01:53:29.694Z,94682.44
2024-02-18T01:58:34.823Z,94687.28
2024-02-18T02:09:01.161Z,94685.88
2024-02-18T02:14:04.560Z,94687.16
2024-02-18T02:19:08.518Z,94685.75
2024-02-18T02:24:14.629Z,94686.88
2024-02-18T02:29:18.201Z,94686.75
2024-02-18T02:34:24.344Z,94690.25
2024-02-18T02:39:27.721Z,94692.00
2024-02-18T02:44:31.164Z,94696.47
2024-02-18T02:49:34.575Z,94681.47
2024-02-18T02:54:38.038Z,94689.22
2024-02-18T02:59:41.635Z,94693.38
2024-02-18T03:04:45.546Z,94695.78
2024-02-18T03:09:48.826Z,94690.19
2024-02-18T03:14:52.829Z,94696.59
2024-02-18T03:19:56.728Z,94697.09
2024-02-18T03:25:01.846Z,94703.16
2024-02-18T03:30:09.060Z,94704.44
2024-02-18T03:35:14.210Z,94710.50
2024-02-18T03:40:18.119Z,94716.09
2024-02-18T03:45:22.136Z,94721.34
2024-02-18T03:50:26.093Z,94715.13
2024-02-18T03:55:31.208Z,94732.47
2024-02-18T04:00:35.408Z,94729.78
2024-02-18T04:05:39.461Z,94724.66
2024-02-18T04:16:01.695Z,94739.69
2024-02-18T04:21:06.146Z,94741.69
2024-02-18T04:26:10.228Z,94756.09
2024-02-18T04:31:13.808Z,94746.25
2024-02-18T04:36:18.341Z,94749.22
2024-02-18T04:41:22.959Z,94742.19
2024-02-18T04:46:26.652Z,94754.41
2024-02-18T04:51:30.551Z,94757.38
2024-02-18T04:56:34.571Z,94760.78
2024-02-18T05:01:39.626Z,94755.09
2024-02-18T05:06:50.557Z,94756.94
2024-02-18T05:11:54.732Z,94768.81
2024-02-18T05:17:01.007Z,94768.44
2024-02-18T05:22:06.552Z,94778.69
2024-02-18T05:27:10.863Z,94773.53
2024-02-18T05:32:14.160Z,94781.09
2024-02-18T05:37:18.300Z,94780.97
2024-02-18T05:42:23.191Z,94781.09
2024-02-18T05:47:27.119Z,94779.59
2024-02-18T05:52:30.733Z,94782.78
2024-02-18T05:57:34.454Z,94786.41
2024-02-18T06:02:39.675Z,94796.78
2024-02-18T06:13:02.166Z,94800.81
2024-02-18T06:18:06.185Z,94806.59
2024-02-18T06:23:09.762Z,94805.84
2024-02-18T06:28:14.112Z,94805.41
2024-02-18T06:33:18.572Z,94799.31
2024-02-18T06:38:22.726Z,94815.75
2024-02-18T06:43:26.035Z,94826.44
2024-02-18T06:48:30.654Z,94818.13
2024-02-18T06:53:34.563Z,94818.31
2024-02-18T06:58:38.291Z,94799.88
2024-02-18T07:03:43.068Z,94811.97
2024-02-18T07:08:47.688Z,94818.00
2024-02-18T07:13:52.723Z,94818.47
2024-02-18T07:18:57.104Z,94805.97
2024-02-18T07:24:01.005Z,94819.22
2024-02-18T07:29:06.355Z,94817.50
2024-02-18T07:34:10.660Z,94815.31
2024-02-18T07:39:14.826Z,94818.34
2024-02-18T07:44:18.997Z,94819.78
2024-02-18T07:49:24.125Z,94827.94
2024-02-18T07:54:28.626Z,94824.25
2024-02-18T07:59:36.455Z,94827.34
2024-02-18T08:04:42.441Z,94833.97
2024-02-18T08:09:46.907Z,94842.09
2024-02-18T08:14:51.608Z,94837.94
2024-02-18T08:19:55.600Z,94837.31
2024-02-18T08:25:00.173Z,94837.72
2024-02-18T08:30:05.659Z,94835.78
2024-02-18T08:35:09.918Z,94836.56
2024-02-18T08:40:14.643Z,94834.66
2024-02-18T08:45:18.166Z,94834.22
2024-02-18T08:50:22.652Z,94834.81
2024-02-18T08:55:28.981Z,94834.44
2024-02-18T09:00:33.125Z,94840.06
2024-02-18T09:10:57.898Z,94854.13
2024-02-18T09:16:01.657Z,94849.28
2024-02-18T09:21:06.497Z,94854.19
2024-02-18T09:26:12.082Z,94852.22
2024-02-18T09:31:16.591Z,94852.50
2024-02-18T09:36:20.321Z,94849.63
2024-02-18T09:41:29.265Z,94852.13
2024-02-18T09:46:38.574Z,94859.81
2024-02-18T09:51:42.768Z,94882.50
2024-02-18T09:56:46.374Z,94869.25
2024-02-18T10:01:56.203Z,94864.09
2024-02-18T10:06:59.705Z,94875.63
2024-02-18T10:12:04.182Z,94868.72
2024-02-18T10:17:09.001Z,94862.69
2024-02-18T10:22:12.724Z,94857.34
2024-02-18T10:27:17.881Z,94857.34
2024-02-18T10:32:21.522Z,94863.75
2024-02-18T10:37:32.139Z,94861.03
2024-02-18T10:42:38.985Z,94855.31
2024-02-18T10:47:47.155Z,94848.66
2024-02-18T10:52:56.197Z,94834.97
2024-02-18T10:58:28.295Z,94834.72
2024-02-18T11:03:40.625Z,94829.25
2024-02-18T11:08:47.781Z,94830.81
2024-02-18T11:13:53.261Z,94828.25
2024-02-18T11:18:57.784Z,94819.09
2024-02-18T11:24:01.715Z,94810.25
2024-02-18T11:29:06.573Z,94812.56
2024-02-18T11:34:10.525Z,94809.75
2024-02-18T11:39:15.305Z,94802.03
2024-02-18T11:44:20.559Z,94802.41
2024-02-18T11:49:25.351Z,94807.09
2024-02-18T11:54:28.969Z,94800.72
2024-02-18T11:59:35.563Z,94792.16
2024-02-18T12:04:40.066Z,94787.97
2024-02-18T12:09:45.209Z,94774.78
2024-02-18T12:14:55.238Z,94765.72
2024-02-18T12:19:59.493Z,94769.16
2024-02-18T12:25:05.619Z,94760.34
2024-02-18T12:30:10.844Z,94753.97
2024-02-18T12:35:14.486Z,94756.41
2024-02-18T12:40:18.612Z,94738.50
2024-02-18T12:45:42.668Z,94735.94
2024-02-18T12:51:13.905Z,94737.25
2024-02-18T12:56:18.785Z,94723.78
2024-02-18T13:01:23.480Z,94728.56
2024-02-18T13:06:27.567Z,94720.59
2024-02-18T13:11:31.039Z,94722.22
2024-02-18T13:16:34.556Z,94724.34
2024-02-18T13:21:38.376Z,94724.81
2024-02-18T13:26:42.459Z,94715.63
2024-02-18T13:31:46.092Z,94712.41
2024-02-18T13:36:51.178Z,94726.00
2024-02-18T13:41:55.671Z,94726.59
2024-02-18T13:47:00.321Z,94722.59
2024-02-18T13:52:04.438Z,94725.25
2024-02-18T13:57:09.271Z,94716.03
2024-02-18T14:02:13.344Z,94717.66
2024-02-18T14:07:20.782Z,94701.78
2024-02-18T14:12:24.066Z,94704.66
2024-02-18T14:17:27.552Z,94709.13
2024-02-18T14:22:31.114Z,94725.69
2024-02-18T14:27:35.289Z,94711.81
2024-02-18T14:32:39.059Z,94721.22
2024-02-18T14:37:43.053Z,94707.09
2024-02-18T14:42:47.157Z,94714.81
2024-02-18T14:47:51.232Z,94718.25
2024-02-18T14:52:57.619Z,94713.47
2024-02-18T14:58:01.974Z,94701.03
2024-02-18T15:03:05.949Z,94711.47
2024-02-18T15:08:09.305Z,94713.31
2024-02-18T15:13:14.790Z,94709.34
2024-02-18T15:18:19.391Z,94700.66
2024-02-18T15:23:23.800Z,94709.50
2024-02-18T15:28:27.786Z,94675.50
2024-02-18T15:33:31.372Z,94673.13
2024-02-18T15:38:35.215Z,94696.81
2024-02-18T15:43:39.833Z,94705.38
2024-02-18T15:48:43.446Z,94695.22
2024-02-18T15:53:47.609Z,94697.28
2024-02-18T15:58:54.554Z,94696.88
2024-02-18T16:03:59.060Z,94687.44
2024-02-18T16:09:07.120Z,94666.31
2024-02-18T16:14:10.629Z,94692.44
2024-02-18T16:24:32.085Z,94703.03
2024-02-18T16:29:36.725Z,94697.50
2024-02-18T16:34:41.438Z,94710.38
2024-02-18T16:39:46.456Z,94709.34
2024-02-18T16:44:50.084Z,94709.41
2024-02-18T16:49:53.868Z,94706.69
2024-02-18T16:54:57.220Z,94709.41
2024-02-18T17:00:01.226Z,94706.09
2024-02-18T17:05:07.633Z,94713.09
2024-02-18T17:10:12.637Z,94723.50
2024-02-18T17:15:16.106Z,94726.47
2024-02-18T17:20:20.049Z,94720.56
2024-02-18T17:25:24.304Z,94729.38
2024-02-18T17:30:30.606Z,94732.00
2024-02-18T17:35:34.584Z,94727.78
2024-02-18T17:40:38.667Z,94713.69
2024-02-18T17:45:42.827Z,94720.03
2024-02-18T17:50:46.364Z,94716.00
2024-02-18T17:55:50.827Z,94720.03
2024-02-18T18:00:54.223Z,94715.72
2024-02-18T18:05:57.736Z,94711.22
2024-02-18T18:11:01.473Z,94709.09
2024-02-18T18:16:08.754Z,94719.47
2024-02-18T18:21:12.670Z,94718.28
2024-02-18T18:26:17.482Z,94704.97
2024-02-18T18:31:21.455Z,94702.38
2024-02-18T18:36:25.323Z,94697.34
2024-02-18T18:41:30.036Z,94704.31
2024-02-18T18:46:37.133Z,94700.41
2024-02-18T18:51:41.199Z,94663.72
2024-02-18T18:56:44.441Z,94685.72
2024-02-18T19:01:48.850Z,94692.69
2024-02-18T19:06:52.355Z,94693.16
2024-02-18T19:11:57.133Z,94688.97
2024-02-18T19:17:00.976Z,94676.66
2024-02-18T19:22:04.858Z,94694.94
2024-02-18T19:27:09.233Z,94682.94
2024-02-18T19:32:13.608Z,94670.91
2024-02-18T19:37:17.788Z,94680.69
2024-02-18T19:42:21.091Z,94677.03
2024-02-18T19:47:26.209Z,94681.22
2024-02-18T19:52:29.611Z,94670.81
2024-02-18T19:57:32.995Z,94681.25
2024-02-18T20:02:36.947Z,94685.19
2024-02-18T20:07:40.459Z,94676.72
2024-02-18T20:12:45.390Z,94675.28
2024-02-18T20:17:51.911Z,94671.47
2024-02-18T20:22:56.524Z,94675.41
2024-02-18T20:28:03.440Z,94675.03
2024-02-18T20:33:07.485Z,94672.22
2024-02-18T20:38:11.669Z,94677.72
2024-02-18T20:43:15.074Z,94669.75
2024-02-18T20:48:18.526Z,94679.72
2024-02-18T20:53:23.119Z,94665.69
2024-02-18T20:58:26.416Z,94684.44
2024-02-18T21:03:30.281Z,94668.03
2024-02-18T21:08:36.402Z,94661.97
2024-02-18T21:13:39.744Z,94661.88
2024-02-18T21:18:43.345Z,94663.63
2024-02-18T21:23:47.102Z,94630.22
2024-02-18T21:28:50.985Z,94654.09
2024-02-18T21:33:54.753Z,94656.38
2024-02-18T21:38:58.185Z,94657.19
2024-02-18T21:44:06.106Z,94661.84
2024-02-18T21:49:10.082Z,94657.22
2024-02-18T21:54:13.621Z,94651.19
2024-02-18T21:59:17.533Z,94647.03
2024-02-18T22:04:21.169Z,94644.19
2024-02-18T22:09:24.841Z,94631.41
2024-02-18T22:14:28.694Z,94635.88
2024-02-18T22:19:32.451Z,94637.81
2024-02-18T22:24:36.134Z,94631.09
2024-02-18T22:29:41.142Z,94629.66
2024-02-18T22:34:45.141Z,94631.16
2024-02-18T22:39:49.029Z,94618.41
2024-02-18T22:44:53.075Z,94629.22
2024-02-18T22:49:56.881Z,94632.75
2024-02-18T22:55:00.215Z,94629.91
2024-02-18T23:00:17.228Z,94618.75
2024-02-18T23:05:20.653Z,94627.72
2024-02-18T23:10:24.476Z,94623.91
2024-02-18T23:15:29.091Z,94611.78
2024-02-18T23:20:32.336Z,94604.00
2024-02-18T23:25:35.631Z,94600.03
2024-02-18T23:30:40.157Z,94597.34
2024-02-18T23:35:44.472Z,94597.47
2024-02-18T23:40:48.384Z,94585.50
2024-02-18T23:45:51.965Z,94575.19
2024-02-18T23:50:56.045Z,94573.03
2024-02-18T23:56:00.262Z,94571.19
